createdAt,value
2022-09-22T00:01:36.080Z,9.46
2022-09-22T00:06:33.121Z,9.45
2022-09-22T00:11:29.137Z,9.18
2022-09-22T00:16:27.962Z,9.19
2022-09-22T00:21:27.660Z,8.95
2022-09-22T00:26:24.501Z,9.10
2022-09-22T00:31:21.212Z,9.11
2022-09-22T00:36:17.720Z,9.11
2022-09-22T00:41:18.908Z,9.09
2022-09-22T00:46:19.339Z,8.90
2022-09-22T00:51:19.564Z,8.99
2022-09-22T00:56:17.110Z,9.00
2022-09-22T01:01:10.678Z,9.12
2022-09-22T01:06:09.417Z,9.09
2022-09-22T01:11:06.416Z,8.98
2022-09-22T01:16:20.254Z,9.07
2022-09-22T01:21:42.758Z,8.93
2022-09-22T01:27:11.322Z,8.84
2022-09-22T01:32:16.782Z,8.69
2022-09-22T01:37:18.604Z,8.77
2022-09-22T01:42:19.084Z,8.55
2022-09-22T01:47:21.694Z,8.57
2022-09-22T01:52:21.232Z,8.45
2022-09-22T01:57:21.990Z,8.34
2022-09-22T02:02:25.018Z,8.48
2022-09-22T02:07:26.836Z,8.28
2022-09-22T02:12:20.728Z,8.61
2022-09-22T02:17:16.835Z,8.46
2022-09-22T02:22:12.874Z,8.57
2022-09-22T02:27:12.253Z,8.58
2022-09-22T02:32:13.136Z,8.43
2022-09-22T02:37:22.038Z,8.31
2022-09-22T02:42:27.905Z,8.17
2022-09-22T02:47:32.392Z,8.20
2022-09-22T02:52:27.444Z,8.04
2022-09-22T02:57:21.194Z,8.28
2022-09-22T03:02:15.073Z,8.14
2022-09-22T03:07:08.251Z,8.02
2022-09-22T03:12:03.485Z,8.05
2022-09-22T03:16:56.729Z,8.10
2022-09-22T03:21:49.911Z,8.06
2022-09-22T03:26:43.122Z,7.91
2022-09-22T03:31:37.977Z,7.78
2022-09-22T03:36:31.252Z,7.84
2022-09-22T03:41:25.007Z,7.69
2022-09-22T03:46:18.318Z,7.70
2022-09-22T03:51:13.007Z,7.91
2022-09-22T03:56:08.417Z,7.91
2022-09-22T04:01:01.981Z,7.94
2022-09-22T04:05:55.215Z,7.98
2022-09-22T04:10:50.329Z,7.93
2022-09-22T04:15:44.088Z,7.82
2022-09-22T04:20:43.552Z,7.78
2022-09-22T04:25:36.834Z,7.55
2022-09-22T04:30:31.634Z,7.54
2022-09-22T04:35:24.969Z,7.74
2022-09-22T04:40:18.584Z,7.63
2022-09-22T04:45:12.407Z,7.61
2022-09-22T04:50:08.266Z,7.70
2022-09-22T04:55:01.448Z,7.54
2022-09-22T04:59:54.686Z,7.54
2022-09-22T05:04:47.907Z,7.54
2022-09-22T05:09:42.524Z,7.53
2022-09-22T05:14:35.755Z,7.49
2022-09-22T05:19:29.393Z,7.52
2022-09-22T05:24:22.671Z,7.35
2022-09-22T05:29:18.307Z,7.38
2022-09-22T05:34:11.658Z,7.40
2022-09-22T05:39:05.202Z,7.26
2022-09-22T05:43:58.526Z,7.60
2022-09-22T05:48:53.154Z,7.69
2022-09-22T05:53:46.391Z,7.62
2022-09-22T05:58:39.618Z,7.59
2022-09-22T06:03:33.045Z,7.50
2022-09-22T06:08:27.701Z,7.46
2022-09-22T06:13:20.945Z,7.73
2022-09-22T06:18:15.306Z,7.98
2022-09-22T06:23:09.097Z,8.19
2022-09-22T06:28:06.645Z,8.12
2022-09-22T06:33:00.397Z,8.37
2022-09-22T06:37:58.283Z,8.64
2022-09-22T06:42:56.952Z,8.84
2022-09-22T06:47:51.531Z,9.11
2022-09-22T06:52:45.408Z,9.25
2022-09-22T06:57:38.621Z,9.55
2022-09-22T07:02:31.873Z,9.78
2022-09-22T07:07:28.185Z,10.01
2022-09-22T07:12:22.283Z,10.18
2022-09-22T07:17:16.249Z,9.96
2022-09-22T07:22:10.107Z,10.06
2022-09-22T07:27:07.015Z,10.11
2022-09-22T07:32:00.321Z,10.19
2022-09-22T07:36:53.615Z,10.20
2022-09-22T07:41:48.140Z,9.91
2022-09-22T07:46:42.795Z,10.03
2022-09-22T07:51:37.323Z,10.33
2022-09-22T07:56:31.058Z,10.65
2022-09-22T08:01:26.842Z,10.94
2022-09-22T08:06:24.040Z,10.91
2022-09-22T08:11:23.128Z,11.22
2022-09-22T08:16:19.679Z,11.50
2022-09-22T08:21:13.269Z,11.77
2022-09-22T08:26:10.437Z,11.82
2022-09-22T08:31:04.838Z,12.03
2022-09-22T08:36:03.719Z,12.23
2022-09-22T08:41:21.937Z,12.18
2022-09-22T08:46:17.109Z,12.50
2022-09-22T08:51:33.882Z,12.76
2022-09-22T08:56:37.826Z,12.99
2022-09-22T09:01:55.124Z,13.45
2022-09-22T09:06:59.169Z,13.19
2022-09-22T09:12:28.911Z,13.24
2022-09-22T09:17:30.449Z,13.46
2022-09-22T09:22:30.072Z,13.44
2022-09-22T09:27:31.117Z,13.29
2022-09-22T09:32:37.705Z,13.59
2022-09-22T09:37:32.208Z,13.52
2022-09-22T09:42:34.908Z,13.52
2022-09-22T09:48:01.462Z,13.81
2022-09-22T09:52:55.938Z,13.89
2022-09-22T09:58:10.866Z,14.29
2022-09-22T10:03:26.104Z,14.46
2022-09-22T10:08:23.556Z,14.34
2022-09-22T10:13:30.611Z,14.08
2022-09-22T10:18:37.654Z,14.29
2022-09-22T10:23:32.913Z,14.47
2022-09-22T10:28:27.558Z,14.59
2022-09-22T10:33:22.882Z,14.70
2022-09-22T10:38:21.826Z,14.55
2022-09-22T10:43:41.030Z,14.65
2022-09-22T10:49:13.903Z,14.81
2022-09-22T10:54:36.531Z,14.90
2022-09-22T11:00:09.955Z,14.96
2022-09-22T11:05:50.670Z,14.89
2022-09-22T11:11:17.692Z,14.85
2022-09-22T11:16:42.257Z,14.87
2022-09-22T11:21:55.809Z,14.80
2022-09-22T11:26:53.470Z,14.62
2022-09-22T11:32:01.446Z,14.59
2022-09-22T11:37:25.557Z,14.81
2022-09-22T11:42:29.045Z,15.00
2022-09-22T11:48:03.766Z,15.13
2022-09-22T11:53:34.261Z,15.35
2022-09-22T11:58:33.326Z,15.36
2022-09-22T12:03:37.484Z,15.44
2022-09-22T12:08:37.971Z,15.66
2022-09-22T12:13:34.172Z,15.74
2022-09-22T12:18:42.435Z,15.84
2022-09-22T12:23:44.227Z,15.98
2022-09-22T12:28:44.003Z,15.93
2022-09-22T12:33:46.424Z,15.92
2022-09-22T12:38:40.109Z,15.92
2022-09-22T12:43:36.220Z,15.96
2022-09-22T12:48:34.287Z,15.98
2022-09-22T12:53:29.800Z,16.00
2022-09-22T12:58:49.928Z,16.00
2022-09-22T13:03:52.503Z,15.92
2022-09-22T13:09:21.413Z,15.71
2022-09-22T13:14:58.978Z,15.78
2022-09-22T13:19:56.286Z,15.74
2022-09-22T13:24:50.977Z,15.70
2022-09-22T13:29:59.252Z,15.84
2022-09-22T13:34:52.472Z,15.85
2022-09-22T13:39:52.541Z,15.86
2022-09-22T13:44:51.745Z,15.76
2022-09-22T13:49:49.606Z,15.70
2022-09-22T13:54:43.654Z,15.73
2022-09-22T13:59:43.543Z,15.79
2022-09-22T14:04:36.924Z,15.91
2022-09-22T14:09:31.765Z,15.93
2022-09-22T14:14:28.030Z,15.96
2022-09-22T14:19:29.161Z,15.97
2022-09-22T14:24:22.709Z,16.04
2022-09-22T14:29:23.142Z,16.07
2022-09-22T14:34:25.563Z,16.12
2022-09-22T14:39:28.796Z,16.14
2022-09-22T14:44:36.411Z,16.27
2022-09-22T14:49:44.781Z,16.47
2022-09-22T14:54:39.020Z,16.42
2022-09-22T14:59:55.476Z,16.55
2022-09-22T15:04:53.907Z,16.44
2022-09-22T15:09:54.661Z,16.36
2022-09-22T15:14:48.737Z,16.33
2022-09-22T15:19:42.011Z,16.31
2022-09-22T15:24:39.382Z,16.26
2022-09-22T15:29:32.708Z,16.20
2022-09-22T15:34:26.398Z,16.13
2022-09-22T15:39:23.823Z,16.08
2022-09-22T15:44:19.183Z,16.15
2022-09-22T15:49:20.924Z,16.05
2022-09-22T15:54:16.717Z,15.93
2022-09-22T15:59:19.820Z,15.91
2022-09-22T16:04:13.508Z,15.89
2022-09-22T16:09:07.623Z,15.81
2022-09-22T16:14:04.036Z,15.68
2022-09-22T16:18:59.555Z,15.58
2022-09-22T16:23:54.735Z,15.45
2022-09-22T16:28:48.260Z,15.58
2022-09-22T16:33:41.581Z,15.44
2022-09-22T16:38:38.257Z,15.29
2022-09-22T16:43:32.414Z,15.11
2022-09-22T16:48:25.936Z,14.99
2022-09-22T16:53:19.171Z,14.86
2022-09-22T16:58:13.801Z,14.75
2022-09-22T17:03:07.082Z,14.60
2022-09-22T17:08:05.932Z,14.58
2022-09-22T17:13:00.174Z,14.73
2022-09-22T17:17:54.798Z,14.65
2022-09-22T17:22:48.109Z,14.52
2022-09-22T17:27:46.833Z,14.35
2022-09-22T17:32:46.282Z,14.17
2022-09-22T17:37:40.917Z,14.11
2022-09-22T17:42:37.704Z,14.00
2022-09-22T17:48:00.041Z,13.79
2022-09-22T17:53:12.178Z,13.55
2022-09-22T17:58:05.449Z,13.50
2022-09-22T18:02:58.886Z,13.42
2022-09-22T18:07:57.919Z,13.40
2022-09-22T18:12:51.543Z,13.21
2022-09-22T18:17:47.979Z,13.20
2022-09-22T18:22:48.251Z,13.08
2022-09-22T18:27:44.176Z,12.96
2022-09-22T18:32:37.477Z,12.68
2022-09-22T18:37:30.887Z,12.62
2022-09-22T18:42:27.526Z,12.67
2022-09-22T18:47:24.201Z,12.50
2022-09-22T18:52:18.235Z,12.43
2022-09-22T18:57:13.315Z,12.35
2022-09-22T19:02:11.308Z,12.14
2022-09-22T19:07:24.360Z,12.20
2022-09-22T19:12:18.021Z,12.18
2022-09-22T19:17:13.187Z,12.10
2022-09-22T19:22:09.518Z,12.11
2022-09-22T19:27:03.318Z,12.15
2022-09-22T19:31:57.139Z,12.11
2022-09-22T19:36:50.610Z,12.05
2022-09-22T19:41:48.165Z,11.86
2022-09-22T19:46:42.662Z,11.57
2022-09-22T19:51:36.002Z,11.40
2022-09-22T19:56:29.261Z,11.45
2022-09-22T20:01:37.523Z,11.61
2022-09-22T20:06:31.347Z,11.50
2022-09-22T20:11:26.742Z,11.61
2022-09-22T20:16:20.258Z,11.46
2022-09-22T20:21:16.523Z,11.43
2022-09-22T20:26:10.826Z,11.34
2022-09-22T20:31:04.144Z,11.10
2022-09-22T20:35:58.906Z,10.94
2022-09-22T20:40:53.632Z,10.74
2022-09-22T20:45:46.902Z,10.89
2022-09-22T20:50:40.154Z,10.69
2022-09-22T20:55:33.395Z,10.82
2022-09-22T21:00:27.992Z,10.89
2022-09-22T21:05:21.786Z,10.84
2022-09-22T21:10:32.589Z,10.73
2022-09-22T21:15:27.315Z,10.65
2022-09-22T21:20:21.587Z,10.64
2022-09-22T21:25:15.211Z,10.53
2022-09-22T21:30:09.739Z,10.24
2022-09-22T21:35:04.730Z,10.11
2022-09-22T21:39:57.955Z,10.19
2022-09-22T21:44:51.243Z,10.23
2022-09-22T21:49:44.508Z,10.07
2022-09-22T21:54:39.089Z,10.06
2022-09-22T21:59:32.314Z,10.31
2022-09-22T22:04:25.583Z,10.02
2022-09-22T22:09:21.401Z,10.11
2022-09-22T22:14:18.399Z,9.95
2022-09-22T22:19:15.246Z,10.12
2022-09-22T22:24:31.806Z,10.01
2022-09-22T22:29:28.146Z,10.02
2022-09-22T22:34:25.533Z,9.87
2022-09-22T22:39:18.775Z,9.77
2022-09-22T22:44:12.982Z,9.79
2022-09-22T22:49:08.278Z,9.84
2022-09-22T22:54:01.568Z,9.79
2022-09-22T22:58:55.871Z,9.45
2022-09-22T23:03:52.699Z,9.31
2022-09-22T23:08:47.820Z,9.39
2022-09-22T23:13:47.947Z,9.51
2022-09-22T23:18:43.636Z,9.53
2022-09-22T23:23:39.007Z,9.28
2022-09-22T23:28:35.858Z,9.34
2022-09-22T23:33:29.612Z,9.60
2022-09-22T23:38:23.290Z,9.52
2022-09-22T23:43:17.017Z,9.44
2022-09-22T23:48:11.648Z,9.50
2022-09-22T23:53:05.269Z,9.49
2022-09-22T23:57:58.537Z,9.32
